Time;durP1;ratioP1;P1;durP2;ratioP2;P2;SDS_P1;SDS_P2;PMS_P1;PMS_P2;Temp;Humidity;BMP_temperature;BMP_pressure;BME280_temperature;BME280_humidity;BME280_pressure;Samples;Min_cycle;Max_cycle;Signal;HPM_P1;HPM_P2
2023/04/28 00:08:49;;;;;;;1999.90;999.90;;;13.30;99.80;;;;;;6697984;88;20196;-75
2023/04/28 00:18:50;;;;;;;1999.90;999.90;;;13.30;99.40;;;;;;6701456;88;20517;-76
2023/04/28 00:28:50;;;;;;;1999.90;999.90;;;13.30;99.40;;;;;;6700343;88;20241;-76
2023/04/28 00:38:51;;;;;;;1999.90;999.90;;;13.30;99.90;;;;;;6697458;88;20646;-75
2023/04/28 00:48:52;;;;;;;1999.90;999.90;;;13.10;99.90;;;;;;6698251;88;20264;-76
2023/04/28 00:58:53;;;;;;;1999.90;999.90;;;12.90;99.90;;;;;;6691314;88;20209;-76
2023/04/28 01:08:55;;;;;;;1999.90;999.90;;;12.70;99.90;;;;;;6704164;88;20210;-76
2023/04/28 01:18:55;;;;;;;1999.90;999.90;;;12.20;99.90;;;;;;6702163;88;20593;-76
2023/04/28 01:28:56;;;;;;;1999.90;999.90;;;12.10;99.90;;;;;;6707935;88;20215;-76
2023/04/28 01:38:56;;;;;;;1999.90;999.90;;;12.00;99.90;;;;;;6702354;88;20325;-76
2023/04/28 01:48:57;;;;;;;1999.90;999.90;;;11.80;99.90;;;;;;6690037;88;20447;-76
2023/04/28 01:58:57;;;;;;;1999.90;999.90;;;11.50;99.90;;;;;;6711259;88;20704;-76
2023/04/28 02:08:58;;;;;;;1999.90;999.90;;;11.40;99.90;;;;;;6699447;88;20641;-76
2023/04/28 02:18:58;;;;;;;1999.90;999.90;;;11.20;99.90;;;;;;6694324;88;20280;-76
2023/04/28 02:28:59;;;;;;;1999.90;999.90;;;11.20;99.90;;;;;;6696013;88;20720;-76
2023/04/28 02:39:00;;;;;;;1999.90;999.90;;;11.00;99.90;;;;;;6700331;88;20349;-76
2023/04/28 02:49:00;;;;;;;1999.90;999.90;;;11.00;99.90;;;;;;6709391;88;20581;-76
2023/04/28 02:59:01;;;;;;;1999.90;999.90;;;11.00;99.90;;;;;;6694733;88;20225;-75
2023/04/28 03:09:02;;;;;;;1999.90;999.90;;;11.00;99.90;;;;;;6705517;88;20203;-76
2023/04/28 03:29:06;;;;;;;1999.90;999.90;;;10.70;99.90;;;;;;6737201;88;20228;-85
2023/04/28 03:49:10;;;;;;;1999.90;999.90;;;10.70;99.90;;;;;;6717793;88;20201;-83
2023/04/28 03:59:11;;;;;;;1999.90;999.90;;;10.80;99.90;;;;;;6716981;88;20224;-84
2023/04/28 04:09:12;;;;;;;1999.90;999.90;;;10.90;99.90;;;;;;6732098;88;20190;-86
2023/04/28 04:19:13;;;;;;;1999.90;999.90;;;10.90;99.90;;;;;;6736315;88;20497;-85
2023/04/28 04:29:13;;;;;;;1999.90;999.90;;;10.90;99.90;;;;;;6736144;88;20873;-87
2023/04/28 04:39:14;;;;;;;1999.90;999.90;;;10.90;99.90;;;;;;6736082;88;20228;-83
2023/04/28 04:49:18;;;;;;;1999.90;999.90;;;11.00;99.90;;;;;;6735721;88;20158;-84
2023/04/28 04:59:18;;;;;;;1999.90;999.90;;;10.80;99.90;;;;;;6734562;88;20162;-84
2023/04/28 05:09:19;;;;;;;1999.90;999.90;;;10.80;99.90;;;;;;6734414;88;20179;-83
2023/04/28 05:30:21;;;;;;;1999.90;999.90;;;11.10;99.90;;;;;;6760088;88;20178;-81
2023/04/28 05:40:42;;;;;;;1999.90;999.90;;;10.90;99.90;;;;;;6776884;77;20187;-82
2023/04/28 05:50:43;;;;;;;1999.90;999.90;;;10.60;99.90;;;;;;6745742;88;20185;-85
2023/04/28 06:00:43;;;;;;;1999.90;999.90;;;10.50;99.90;;;;;;6748528;88;20169;-82
2023/04/28 06:10:44;;;;;;;1999.90;999.90;;;10.60;99.90;;;;;;6747222;88;20633;-81
2023/04/28 06:20:45;;;;;;;1999.90;999.90;;;10.60;99.90;;;;;;6749946;88;20177;-82
2023/04/28 06:30:46;;;;;;;1999.90;999.90;;;10.80;99.90;;;;;;6746745;88;20208;-83
2023/04/28 06:40:46;;;;;;;1999.90;999.90;;;11.00;99.90;;;;;;6743545;88;20154;-84
2023/04/28 06:50:47;;;;;;;1999.90;999.90;;;11.20;99.90;;;;;;6749600;88;20187;-84
2023/04/28 07:00:47;;;;;;;1999.90;999.90;;;11.40;99.90;;;;;;6733997;88;20178;-84
2023/04/28 07:10:48;;;;;;;1999.90;999.90;;;11.70;99.90;;;;;;6717167;88;20260;-84
2023/04/28 07:20:48;;;;;;;1999.90;999.90;;;11.90;99.90;;;;;;6716442;88;20159;-83
2023/04/28 07:30:49;;;;;;;1999.90;999.90;;;12.40;99.90;;;;;;6716314;88;20309;-84
2023/04/28 07:40:50;;;;;;;1999.90;999.90;;;12.90;99.90;;;;;;6744506;88;20165;-86
2023/04/28 07:50:50;;;;;;;1999.90;999.90;;;13.30;99.90;;;;;;6752327;88;20206;-84
2023/04/28 08:00:51;;;;;;;1999.90;999.90;;;13.50;99.90;;;;;;6752612;88;20214;-84
2023/04/28 08:10:53;;;;;;;1999.90;999.90;;;13.50;99.90;;;;;;6752238;88;20193;-87
2023/04/28 08:20:54;;;;;;;1999.90;999.90;;;13.80;99.90;;;;;;6733104;88;20195;-84
2023/04/28 08:30:56;;;;;;;1999.90;999.90;;;14.50;99.90;;;;;;6681870;89;20169;-86
2023/04/28 08:40:59;;;;;;;1999.90;999.90;;;14.60;99.90;;;;;;6681606;89;20199;-84
2023/04/28 08:51:01;;;;;;;1999.90;999.90;;;14.90;99.90;;;;;;6695316;89;20219;-85
2023/04/28 09:11:09;;;;;;;1999.90;999.90;;;15.10;99.90;;;;;;6753250;88;20219;-83
2023/04/28 09:21:12;;;;;;;1999.90;999.90;;;15.10;99.90;;;;;;6751680;88;20828;-81
2023/04/28 09:31:24;;;;;;;1999.90;999.90;;;15.40;99.90;;;;;;6750548;88;20250;-80
2023/04/28 09:41:44;;;;;;;1999.90;999.90;;;15.70;99.90;;;;;;6749833;88;20241;-80
2023/04/28 09:51:45;;;;;;;1999.90;999.90;;;15.90;99.90;;;;;;6733570;88;20182;-80
2023/04/28 10:01:46;;;;;;;1999.90;999.90;;;16.00;99.90;;;;;;6731812;88;20240;-80
2023/04/28 10:11:47;;;;;;;1999.90;999.90;;;15.90;99.90;;;;;;6732558;88;20166;-79
2023/04/28 10:22:13;;;;;;;1999.90;999.90;;;16.10;99.90;;;;;;6731728;88;20204;-80
2023/04/28 10:32:24;;;;;;;1999.90;999.90;;;16.20;99.90;;;;;;6740630;88;20186;-79
2023/04/28 10:42:52;;;;;;;1999.90;999.90;;;16.10;99.90;;;;;;6730622;88;20823;-80
2023/04/28 10:52:52;;;;;;;1999.90;999.90;;;15.80;99.90;;;;;;6730281;88;20313;-81
2023/04/28 11:02:53;;;;;;;1999.90;999.90;;;15.60;99.90;;;;;;6732150;88;20154;-80
2023/04/28 11:13:26;;;;;;;1999.90;999.90;;;15.80;99.90;;;;;;6731670;88;20169;-81
2023/04/28 11:23:28;;;;;;;1999.90;999.90;;;15.60;99.90;;;;;;6726979;88;20203;-82
2023/04/28 11:33:29;;;;;;;1999.90;999.90;;;15.90;99.90;;;;;;6717107;88;20974;-79
2023/04/28 11:43:30;;;;;;;1999.90;999.90;;;16.40;99.90;;;;;;6721694;88;20179;-80
2023/04/28 11:53:44;;;;;;;1999.90;999.90;;;17.20;99.90;;;;;;6741699;88;20194;-80
2023/04/28 12:03:45;;;;;;;1999.90;999.90;;;17.90;99.90;;;;;;6729598;88;20818;-80
2023/04/28 12:14:03;;;;;;;1999.90;999.90;;;18.00;99.90;;;;;;6730181;88;20228;-81
2023/04/28 12:24:19;;;;;;;1999.90;999.90;;;18.70;99.90;;;;;;6733289;88;20147;-81
2023/04/28 12:34:19;;;;;;;1999.90;999.90;;;20.10;99.90;;;;;;6734432;88;20284;-83
2023/04/28 12:44:21;;;;;;;1999.90;999.90;;;21.10;99.90;;;;;;6734065;88;20331;-80
2023/04/28 12:54:22;;;;;;;1999.90;999.90;;;20.40;99.90;;;;;;6733735;88;20166;-81
2023/04/28 13:04:23;;;;;;;1999.90;999.90;;;21.20;99.90;;;;;;6733808;88;20185;-81
2023/04/28 13:14:25;;;;;;;1999.90;999.90;;;22.60;99.90;;;;;;6733046;88;20166;-83
2023/04/28 13:24:26;;;;;;;1999.90;999.90;;;23.50;99.90;;;;;;6732785;88;20261;-82
2023/04/28 13:34:26;;;;;;;1999.90;999.90;;;24.30;99.90;;;;;;6730652;88;20838;-82
2023/04/28 13:44:27;;;;;;;1999.90;999.90;;;23.10;99.90;;;;;;6727402;88;20265;-81
2023/04/28 13:54:27;;;;;;;1999.90;999.90;;;21.00;99.90;;;;;;6730022;88;20213;-79
2023/04/28 14:04:28;;;;;;;1999.90;999.90;;;21.80;99.90;;;;;;6729149;88;20217;-82
2023/04/28 14:14:28;;;;;;;1999.90;999.90;;;22.70;99.90;;;;;;6719589;88;20206;-81
2023/04/28 14:24:29;;;;;;;1999.90;999.90;;;21.80;99.90;;;;;;6737240;88;20188;-81
2023/04/28 14:34:30;;;;;;;1999.90;999.90;;;22.40;99.90;;;;;;6739301;88;20211;-80
2023/04/28 14:44:31;;;;;;;1999.90;999.90;;;22.80;99.90;;;;;;6739465;88;20181;-80
2023/04/28 14:54:31;;;;;;;1999.90;999.90;;;22.50;99.90;;;;;;6746565;88;20326;-80
2023/04/28 15:04:32;;;;;;;1999.90;999.90;;;22.50;99.90;;;;;;6747241;88;20314;-80
2023/04/28 15:14:32;;;;;;;1999.90;999.90;;;22.90;99.90;;;;;;6744672;88;20192;-81
2023/04/28 15:24:33;;;;;;;1999.90;999.90;;;23.00;99.90;;;;;;6752274;88;20145;-79
2023/04/28 15:34:34;;;;;;;1999.90;999.90;;;23.40;99.90;;;;;;6730766;88;20776;-80
2023/04/28 15:44:35;;;;;;;1999.90;999.90;;;23.20;99.90;;;;;;6734589;88;20154;-80
2023/04/28 15:54:36;;;;;;;1999.90;999.90;;;22.80;99.90;;;;;;6729646;88;20377;-80
2023/04/28 16:04:37;;;;;;;1999.90;999.90;;;22.40;99.90;;;;;;6730282;88;20913;-80
2023/04/28 16:14:37;;;;;;;1999.90;999.90;;;22.20;99.90;;;;;;6739361;88;20425;-83
2023/04/28 16:24:41;;;;;;;1999.90;999.90;;;21.80;99.90;;;;;;6732416;88;20212;-78
2023/04/28 16:34:41;;;;;;;1999.90;999.90;;;21.70;99.90;;;;;;6729671;88;21063;-79
2023/04/28 16:44:42;;;;;;;1999.90;999.90;;;21.20;99.90;;;;;;6734220;88;20263;-79
2023/04/28 16:54:43;;;;;;;1999.90;999.90;;;20.90;99.90;;;;;;6730613;88;20175;-77
2023/04/28 17:04:43;;;;;;;1999.90;999.90;;;20.50;99.90;;;;;;6732654;88;20186;-79
2023/04/28 17:14:44;;;;;;;1999.90;999.90;;;19.40;99.90;;;;;;6728232;88;20514;-81
2023/04/28 17:24:45;;;;;;;1999.90;999.90;;;19.20;99.90;;;;;;6728107;88;20572;-78
2023/04/28 17:34:46;;;;;;;1999.90;999.90;;;18.90;99.90;;;;;;6725391;88;20223;-77
2023/04/28 17:44:46;;;;;;;1999.90;999.90;;;18.00;99.90;;;;;;6721479;88;20181;-79
2023/04/28 17:54:47;;;;;;;1999.90;999.90;;;17.90;99.90;;;;;;6724506;88;20299;-80
2023/04/28 18:04:49;;;;;;;1999.90;999.90;;;17.40;99.90;;;;;;6738007;88;20174;-82
2023/04/28 18:14:50;;;;;;;1999.90;999.90;;;17.30;99.90;;;;;;6744615;88;22360;-79
2023/04/28 18:24:51;;;;;;;1999.90;999.90;;;17.20;99.90;;;;;;6739208;88;20255;-80
2023/04/28 18:34:52;;;;;;;1999.90;999.90;;;16.70;99.90;;;;;;6744387;88;20185;-81
2023/04/28 18:44:57;;;;;;;1999.90;999.90;;;16.60;99.90;;;;;;6742402;88;20190;-83
2023/04/28 18:54:58;;;;;;;1999.90;999.90;;;16.40;99.90;;;;;;6738167;88;20289;-84
2023/04/28 19:04:59;;;;;;;1999.90;999.90;;;16.40;99.90;;;;;;6746889;88;20880;-83
2023/04/28 19:15:00;;;;;;;1999.90;999.90;;;16.30;99.90;;;;;;6752753;88;20188;-81
2023/04/28 19:25:02;;;;;;;1999.90;999.90;;;16.20;99.90;;;;;;6750820;88;20197;-81
2023/04/28 19:35:04;;;;;;;1999.90;999.90;;;16.10;99.90;;;;;;6733470;88;20166;-81
2023/04/28 19:45:05;;;;;;;1999.90;999.90;;;16.00;99.90;;;;;;6734687;88;20242;-81
2023/04/28 19:55:06;;;;;;;1999.90;999.90;;;15.90;99.90;;;;;;6734477;88;20166;-81
2023/04/28 20:05:08;;;;;;;1999.90;999.90;;;15.80;99.90;;;;;;6729823;88;20212;-82
2023/04/28 20:26:16;;;;;;;1999.90;999.90;;;15.60;99.90;;;;;;6753991;88;20180;-85
2023/04/28 20:36:17;;;;;;;1999.90;999.90;;;15.60;99.90;;;;;;6750713;88;20174;-83
2023/04/28 20:46:17;;;;;;;1999.90;999.90;;;15.50;99.90;;;;;;6750839;88;20204;-84
2023/04/28 20:56:18;;;;;;;1999.90;999.90;;;15.40;99.90;;;;;;6749602;88;20512;-83
2023/04/28 21:06:18;;;;;;;1999.90;999.90;;;15.40;99.90;;;;;;6749519;88;20495;-81
2023/04/28 21:16:19;;;;;;;1999.90;999.90;;;15.40;99.90;;;;;;6748259;88;20161;-84
2023/04/28 21:26:20;;;;;;;1999.90;999.90;;;15.40;99.90;;;;;;6714503;88;20175;-80
2023/04/28 21:36:21;;;;;;;1999.90;999.90;;;15.20;99.90;;;;;;6714658;88;20155;-81
2023/04/28 21:46:22;;;;;;;1999.90;999.90;;;15.10;99.90;;;;;;6714361;88;20176;-80
2023/04/28 21:56:22;;;;;;;1999.90;999.90;;;15.00;99.90;;;;;;6742727;88;20226;-80
2023/04/28 22:06:23;;;;;;;1999.90;999.90;;;14.80;99.90;;;;;;6750274;88;20904;-80
2023/04/28 22:16:24;;;;;;;1999.90;999.90;;;14.70;99.90;;;;;;6750234;88;20515;-81
2023/04/28 22:26:25;;;;;;;1999.90;999.90;;;14.70;99.90;;;;;;6749878;88;20216;-82
2023/04/28 22:36:26;;;;;;;1999.90;999.90;;;14.30;99.90;;;;;;6747573;88;20290;-81
2023/04/28 22:46:27;;;;;;;1999.90;999.90;;;14.10;99.90;;;;;;6750291;88;20169;-81
2023/04/28 22:56:28;;;;;;;1999.90;999.90;;;14.00;99.90;;;;;;6750000;88;20189;-81
2023/04/28 23:06:28;;;;;;;1999.90;999.90;;;13.90;99.90;;;;;;6749666;88;20245;-83
2023/04/28 23:16:29;;;;;;;1999.90;999.90;;;13.90;99.90;;;;;;6730261;88;20177;-84
2023/04/28 23:26:29;;;;;;;1999.90;999.90;;;13.80;99.90;;;;;;6730210;88;20169;-82
2023/04/28 23:36:30;;;;;;;1999.90;999.90;;;13.80;99.90;;;;;;6731011;88;20921;-80
2023/04/28 23:46:30;;;;;;;1999.90;999.90;;;13.70;99.90;;;;;;6747881;88;20182;-79
2023/04/28 23:56:31;;;;;;;1999.90;999.90;;;13.60;99.90;;;;;;6752264;88;20233;-82
